sensor_id;sensor_type;location;lat;lon;timestamp;temperature;humidity
39931;DHT22;26635;-35.248;149.138;2024-03-06T00:02:18;24.30;66.10
39931;DHT22;26635;-35.248;149.138;2024-03-06T00:04:48;24.50;66.30
39931;DHT22;26635;-35.248;149.138;2024-03-06T00:07:19;24.60;65.00
39931;DHT22;26635;-35.248;149.138;2024-03-06T00:09:49;24.70;63.70
39931;DHT22;26635;-35.248;149.138;2024-03-06T00:12:19;24.80;64.50
39931;DHT22;26635;-35.248;149.138;2024-03-06T00:14:50;24.90;64.30
39931;DHT22;26635;-35.248;149.138;2024-03-06T00:17:20;25.00;63.70
39931;DHT22;26635;-35.248;149.138;2024-03-06T00:19:50;25.10;63.30
39931;DHT22;26635;-35.248;149.138;2024-03-06T00:22:21;25.20;63.20
39931;DHT22;26635;-35.248;149.138;2024-03-06T00:24:52;25.30;62.90
39931;DHT22;26635;-35.248;149.138;2024-03-06T00:27:22;25.30;62.60
39931;DHT22;26635;-35.248;149.138;2024-03-06T00:29:52;25.30;62.90
39931;DHT22;26635;-35.248;149.138;2024-03-06T00:32:23;25.50;63.10
39931;DHT22;26635;-35.248;149.138;2024-03-06T00:34:53;25.70;62.60
39931;DHT22;26635;-35.248;149.138;2024-03-06T00:37:24;25.80;60.40
39931;DHT22;26635;-35.248;149.138;2024-03-06T00:39:54;25.90;60.60
39931;DHT22;26635;-35.248;149.138;2024-03-06T00:42:25;25.90;60.40
39931;DHT22;26635;-35.248;149.138;2024-03-06T00:44:55;25.90;60.50
39931;DHT22;26635;-35.248;149.138;2024-03-06T00:47:25;25.90;59.00
39931;DHT22;26635;-35.248;149.138;2024-03-06T00:49:56;25.80;58.40
39931;DHT22;26635;-35.248;149.138;2024-03-06T00:52:27;25.80;59.20
39931;DHT22;26635;-35.248;149.138;2024-03-06T00:54:57;25.90;59.60
39931;DHT22;26635;-35.248;149.138;2024-03-06T00:57:27;26.00;59.90
39931;DHT22;26635;-35.248;149.138;2024-03-06T00:59:58;26.10;59.30
39931;DHT22;26635;-35.248;149.138;2024-03-06T01:02:28;26.30;59.10
39931;DHT22;26635;-35.248;149.138;2024-03-06T01:04:59;26.40;58.70
39931;DHT22;26635;-35.248;149.138;2024-03-06T01:07:33;26.50;58.00
39931;DHT22;26635;-35.248;149.138;2024-03-06T01:10:05;26.60;58.30
39931;DHT22;26635;-35.248;149.138;2024-03-06T01:12:36;26.70;58.20
39931;DHT22;26635;-35.248;149.138;2024-03-06T01:15:07;26.70;58.10
39931;DHT22;26635;-35.248;149.138;2024-03-06T01:17:37;26.80;57.30
39931;DHT22;26635;-35.248;149.138;2024-03-06T01:20:08;26.80;58.00
39931;DHT22;26635;-35.248;149.138;2024-03-06T01:22:39;26.90;57.20
39931;DHT22;26635;-35.248;149.138;2024-03-06T01:25:09;27.00;57.60
39931;DHT22;26635;-35.248;149.138;2024-03-06T01:27:39;27.00;57.10
39931;DHT22;26635;-35.248;149.138;2024-03-06T01:30:10;27.10;57.20
39931;DHT22;26635;-35.248;149.138;2024-03-06T01:32:40;27.10;57.30
39931;DHT22;26635;-35.248;149.138;2024-03-06T01:35:11;27.20;57.20
39931;DHT22;26635;-35.248;149.138;2024-03-06T01:37:41;27.30;57.10
39931;DHT22;26635;-35.248;149.138;2024-03-06T01:40:12;27.40;57.00
39931;DHT22;26635;-35.248;149.138;2024-03-06T01:42:43;27.40;56.30
39931;DHT22;26635;-35.248;149.138;2024-03-06T01:45:13;27.50;56.60
39931;DHT22;26635;-35.248;149.138;2024-03-06T01:47:44;27.60;56.40
39931;DHT22;26635;-35.248;149.138;2024-03-06T01:50:14;27.60;55.50
39931;DHT22;26635;-35.248;149.138;2024-03-06T01:52:47;27.70;55.50
39931;DHT22;26635;-35.248;149.138;2024-03-06T01:55:18;27.70;55.90
39931;DHT22;26635;-35.248;149.138;2024-03-06T01:57:48;27.60;56.40
39931;DHT22;26635;-35.248;149.138;2024-03-06T02:00:19;27.60;57.00
39931;DHT22;26635;-35.248;149.138;2024-03-06T02:02:50;27.50;56.40
39931;DHT22;26635;-35.248;149.138;2024-03-06T02:05:20;27.30;56.20
39931;DHT22;26635;-35.248;149.138;2024-03-06T02:07:54;27.20;56.90
39931;DHT22;26635;-35.248;149.138;2024-03-06T02:10:25;27.20;57.50
39931;DHT22;26635;-35.248;149.138;2024-03-06T02:12:56;27.20;57.50
39931;DHT22;26635;-35.248;149.138;2024-03-06T02:15:27;27.20;57.40
39931;DHT22;26635;-35.248;149.138;2024-03-06T02:17:58;27.20;57.70
39931;DHT22;26635;-35.248;149.138;2024-03-06T02:20:30;27.20;57.50
39931;DHT22;26635;-35.248;149.138;2024-03-06T02:23:00;27.20;57.60
39931;DHT22;26635;-35.248;149.138;2024-03-06T02:25:30;27.10;56.10
39931;DHT22;26635;-35.248;149.138;2024-03-06T02:28:01;27.10;58.10
39931;DHT22;26635;-35.248;149.138;2024-03-06T02:30:31;27.20;57.60
39931;DHT22;26635;-35.248;149.138;2024-03-06T02:33:06;27.20;55.70
39931;DHT22;26635;-35.248;149.138;2024-03-06T02:35:37;27.10;55.70
39931;DHT22;26635;-35.248;149.138;2024-03-06T02:38:09;27.20;57.40
39931;DHT22;26635;-35.248;149.138;2024-03-06T02:40:43;27.20;56.10
39931;DHT22;26635;-35.248;149.138;2024-03-06T02:43:14;27.20;57.00
39931;DHT22;26635;-35.248;149.138;2024-03-06T02:45:45;27.30;56.40
39931;DHT22;26635;-35.248;149.138;2024-03-06T02:48:15;27.30;55.80
39931;DHT22;26635;-35.248;149.138;2024-03-06T02:50:46;27.30;56.20
39931;DHT22;26635;-35.248;149.138;2024-03-06T02:53:16;27.30;56.20
39931;DHT22;26635;-35.248;149.138;2024-03-06T02:55:46;27.30;56.20
39931;DHT22;26635;-35.248;149.138;2024-03-06T02:58:17;27.40;55.40
39931;DHT22;26635;-35.248;149.138;2024-03-06T03:00:47;27.40;55.60
39931;DHT22;26635;-35.248;149.138;2024-03-06T03:03:18;27.40;55.60
39931;DHT22;26635;-35.248;149.138;2024-03-06T03:05:49;27.60;56.10
39931;DHT22;26635;-35.248;149.138;2024-03-06T03:08:23;27.70;56.20
39931;DHT22;26635;-35.248;149.138;2024-03-06T03:10:56;27.80;54.90
39931;DHT22;26635;-35.248;149.138;2024-03-06T03:13:26;27.80;53.80
39931;DHT22;26635;-35.248;149.138;2024-03-06T03:15:57;27.90;52.90
39931;DHT22;26635;-35.248;149.138;2024-03-06T03:18:28;27.80;52.70
39931;DHT22;26635;-35.248;149.138;2024-03-06T03:20:58;27.70;52.10
39931;DHT22;26635;-35.248;149.138;2024-03-06T03:23:29;27.70;53.60
39931;DHT22;26635;-35.248;149.138;2024-03-06T03:25:59;27.60;53.50
39931;DHT22;26635;-35.248;149.138;2024-03-06T03:28:29;27.60;53.30
39931;DHT22;26635;-35.248;149.138;2024-03-06T03:31:00;27.60;53.10
39931;DHT22;26635;-35.248;149.138;2024-03-06T03:33:30;27.70;52.10
39931;DHT22;26635;-35.248;149.138;2024-03-06T03:36:01;27.80;54.00
39931;DHT22;26635;-35.248;149.138;2024-03-06T03:38:31;27.90;53.80
39931;DHT22;26635;-35.248;149.138;2024-03-06T03:41:09;28.00;52.50
39931;DHT22;26635;-35.248;149.138;2024-03-06T03:43:43;28.10;53.00
39931;DHT22;26635;-35.248;149.138;2024-03-06T03:46:13;28.30;48.80
39931;DHT22;26635;-35.248;149.138;2024-03-06T03:48:44;28.40;46.80
39931;DHT22;26635;-35.248;149.138;2024-03-06T03:51:14;28.50;46.50
39931;DHT22;26635;-35.248;149.138;2024-03-06T03:53:44;28.70;46.80
39931;DHT22;26635;-35.248;149.138;2024-03-06T03:56:16;28.80;46.90
39931;DHT22;26635;-35.248;149.138;2024-03-06T03:58:47;28.80;44.60
39931;DHT22;26635;-35.248;149.138;2024-03-06T04:01:17;28.80;45.80
39931;DHT22;26635;-35.248;149.138;2024-03-06T04:03:48;28.70;46.40
39931;DHT22;26635;-35.248;149.138;2024-03-06T04:06:18;28.70;46.70
39931;DHT22;26635;-35.248;149.138;2024-03-06T04:09:08;28.60;45.30
39931;DHT22;26635;-35.248;149.138;2024-03-06T04:11:41;28.50;45.70
39931;DHT22;26635;-35.248;149.138;2024-03-06T04:14:11;28.50;46.90
39931;DHT22;26635;-35.248;149.138;2024-03-06T04:16:42;28.60;46.60
39931;DHT22;26635;-35.248;149.138;2024-03-06T04:19:12;28.60;47.80
39931;DHT22;26635;-35.248;149.138;2024-03-06T04:21:43;28.60;46.90
39931;DHT22;26635;-35.248;149.138;2024-03-06T04:24:14;28.50;47.80
39931;DHT22;26635;-35.248;149.138;2024-03-06T04:26:44;28.50;46.10
39931;DHT22;26635;-35.248;149.138;2024-03-06T04:29:15;28.50;47.80
39931;DHT22;26635;-35.248;149.138;2024-03-06T04:31:45;28.50;47.40
39931;DHT22;26635;-35.248;149.138;2024-03-06T04:34:16;28.50;46.50
39931;DHT22;26635;-35.248;149.138;2024-03-06T04:36:46;28.50;47.20
39931;DHT22;26635;-35.248;149.138;2024-03-06T04:39:16;28.50;47.40
39931;DHT22;26635;-35.248;149.138;2024-03-06T04:41:47;28.50;47.10
39931;DHT22;26635;-35.248;149.138;2024-03-06T04:44:17;28.40;46.70
39931;DHT22;26635;-35.248;149.138;2024-03-06T04:46:50;28.30;47.40
39931;DHT22;26635;-35.248;149.138;2024-03-06T04:49:21;28.20;46.20
39931;DHT22;26635;-35.248;149.138;2024-03-06T04:51:51;28.20;47.20
39931;DHT22;26635;-35.248;149.138;2024-03-06T04:54:22;28.20;47.30
39931;DHT22;26635;-35.248;149.138;2024-03-06T04:56:52;28.20;47.50
39931;DHT22;26635;-35.248;149.138;2024-03-06T04:59:23;28.10;48.10
39931;DHT22;26635;-35.248;149.138;2024-03-06T05:01:53;28.10;47.70
39931;DHT22;26635;-35.248;149.138;2024-03-06T05:04:24;28.10;47.40
39931;DHT22;26635;-35.248;149.138;2024-03-06T05:07:10;28.20;47.20
39931;DHT22;26635;-35.248;149.138;2024-03-06T05:10:00;28.20;48.50
39931;DHT22;26635;-35.248;149.138;2024-03-06T05:12:46;28.20;48.30
39931;DHT22;26635;-35.248;149.138;2024-03-06T05:15:33;28.20;48.10
39931;DHT22;26635;-35.248;149.138;2024-03-06T05:18:19;28.10;47.70
39931;DHT22;26635;-35.248;149.138;2024-03-06T05:21:06;28.10;48.10
39931;DHT22;26635;-35.248;149.138;2024-03-06T05:23:52;28.00;48.40
39931;DHT22;26635;-35.248;149.138;2024-03-06T05:26:39;28.00;48.40
39931;DHT22;26635;-35.248;149.138;2024-03-06T05:29:25;27.90;45.70
39931;DHT22;26635;-35.248;149.138;2024-03-06T05:32:11;27.80;46.10
39931;DHT22;26635;-35.248;149.138;2024-03-06T05:34:57;27.80;47.10
39931;DHT22;26635;-35.248;149.138;2024-03-06T05:37:44;27.80;47.30
39931;DHT22;26635;-35.248;149.138;2024-03-06T05:40:31;27.80;48.00
39931;DHT22;26635;-35.248;149.138;2024-03-06T05:43:22;27.80;47.30
39931;DHT22;26635;-35.248;149.138;2024-03-06T05:46:08;27.70;45.50
39931;DHT22;26635;-35.248;149.138;2024-03-06T05:48:54;27.80;45.00
39931;DHT22;26635;-35.248;149.138;2024-03-06T05:51:41;27.70;44.70
39931;DHT22;26635;-35.248;149.138;2024-03-06T05:54:27;27.60;40.00
39931;DHT22;26635;-35.248;149.138;2024-03-06T05:57:14;27.60;39.70
39931;DHT22;26635;-35.248;149.138;2024-03-06T06:00:00;27.50;39.30
39931;DHT22;26635;-35.248;149.138;2024-03-06T06:02:30;27.50;41.10
39931;DHT22;26635;-35.248;149.138;2024-03-06T06:05:02;27.50;42.30
39931;DHT22;26635;-35.248;149.138;2024-03-06T06:07:53;27.50;41.50
39931;DHT22;26635;-35.248;149.138;2024-03-06T06:10:24;27.50;41.90
39931;DHT22;26635;-35.248;149.138;2024-03-06T06:12:54;27.50;43.00
39931;DHT22;26635;-35.248;149.138;2024-03-06T06:15:24;27.50;44.30
39931;DHT22;26635;-35.248;149.138;2024-03-06T06:17:55;27.40;42.80
39931;DHT22;26635;-35.248;149.138;2024-03-06T06:20:25;27.50;44.10
39931;DHT22;26635;-35.248;149.138;2024-03-06T06:22:57;27.40;42.50
39931;DHT22;26635;-35.248;149.138;2024-03-06T06:25:27;27.40;43.40
39931;DHT22;26635;-35.248;149.138;2024-03-06T06:27:57;27.40;43.20
39931;DHT22;26635;-35.248;149.138;2024-03-06T06:30:29;27.40;41.70
39931;DHT22;26635;-35.248;149.138;2024-03-06T06:32:59;27.40;42.80
39931;DHT22;26635;-35.248;149.138;2024-03-06T06:35:30;27.40;44.20
39931;DHT22;26635;-35.248;149.138;2024-03-06T06:38:03;27.40;42.50
39931;DHT22;26635;-35.248;149.138;2024-03-06T06:40:34;27.40;41.70
39931;DHT22;26635;-35.248;149.138;2024-03-06T06:43:05;27.40;40.20
39931;DHT22;26635;-35.248;149.138;2024-03-06T06:45:36;27.30;41.40
39931;DHT22;26635;-35.248;149.138;2024-03-06T06:48:07;27.30;42.20
39931;DHT22;26635;-35.248;149.138;2024-03-06T06:50:38;27.40;42.00
39931;DHT22;26635;-35.248;149.138;2024-03-06T06:53:09;27.30;41.90
39931;DHT22;26635;-35.248;149.138;2024-03-06T06:55:39;27.30;42.40
39931;DHT22;26635;-35.248;149.138;2024-03-06T06:58:09;27.30;40.90
39931;DHT22;26635;-35.248;149.138;2024-03-06T07:00:40;27.20;41.20
39931;DHT22;26635;-35.248;149.138;2024-03-06T07:03:11;27.20;39.40
39931;DHT22;26635;-35.248;149.138;2024-03-06T07:05:41;27.20;39.00
39931;DHT22;26635;-35.248;149.138;2024-03-06T07:08:12;27.20;40.60
39931;DHT22;26635;-35.248;149.138;2024-03-06T07:10:46;27.10;39.30
39931;DHT22;26635;-35.248;149.138;2024-03-06T07:13:16;27.10;39.10
39931;DHT22;26635;-35.248;149.138;2024-03-06T07:15:47;27.00;39.00
39931;DHT22;26635;-35.248;149.138;2024-03-06T07:18:17;27.00;40.30
39931;DHT22;26635;-35.248;149.138;2024-03-06T07:20:48;26.90;40.90
39931;DHT22;26635;-35.248;149.138;2024-03-06T07:23:18;26.80;40.10
39931;DHT22;26635;-35.248;149.138;2024-03-06T07:25:48;26.80;40.30
39931;DHT22;26635;-35.248;149.138;2024-03-06T07:28:20;26.60;40.60
39931;DHT22;26635;-35.248;149.138;2024-03-06T07:30:51;26.60;40.50
39931;DHT22;26635;-35.248;149.138;2024-03-06T07:33:21;26.60;40.60
39931;DHT22;26635;-35.248;149.138;2024-03-06T07:35:52;26.50;40.30
39931;DHT22;26635;-35.248;149.138;2024-03-06T07:38:22;26.50;40.90
39931;DHT22;26635;-35.248;149.138;2024-03-06T07:40:58;26.40;41.30
39931;DHT22;26635;-35.248;149.138;2024-03-06T07:43:32;26.30;41.90
39931;DHT22;26635;-35.248;149.138;2024-03-06T07:46:02;26.20;41.40
39931;DHT22;26635;-35.248;149.138;2024-03-06T07:48:32;26.10;42.20
39931;DHT22;26635;-35.248;149.138;2024-03-06T07:51:04;26.10;42.30
39931;DHT22;26635;-35.248;149.138;2024-03-06T07:53:34;25.90;42.20
39931;DHT22;26635;-35.248;149.138;2024-03-06T07:56:05;25.90;42.80
39931;DHT22;26635;-35.248;149.138;2024-03-06T07:58:38;25.80;44.00
39931;DHT22;26635;-35.248;149.138;2024-03-06T08:01:10;25.60;44.50
39931;DHT22;26635;-35.248;149.138;2024-03-06T08:03:42;25.60;43.90
39931;DHT22;26635;-35.248;149.138;2024-03-06T08:06:14;25.50;44.60
39931;DHT22;26635;-35.248;149.138;2024-03-06T08:08:47;25.40;45.90
39931;DHT22;26635;-35.248;149.138;2024-03-06T08:11:19;25.30;49.30
39931;DHT22;26635;-35.248;149.138;2024-03-06T08:13:57;25.20;48.00
39931;DHT22;26635;-35.248;149.138;2024-03-06T08:16:29;25.00;48.40
39931;DHT22;26635;-35.248;149.138;2024-03-06T08:19:04;25.00;48.20
39931;DHT22;26635;-35.248;149.138;2024-03-06T08:21:34;24.90;49.10
39931;DHT22;26635;-35.248;149.138;2024-03-06T08:24:05;24.80;49.40
39931;DHT22;26635;-35.248;149.138;2024-03-06T08:26:36;24.70;49.10
39931;DHT22;26635;-35.248;149.138;2024-03-06T08:29:06;24.60;49.90
39931;DHT22;26635;-35.248;149.138;2024-03-06T08:31:36;24.60;51.00
39931;DHT22;26635;-35.248;149.138;2024-03-06T08:34:07;24.50;51.20
39931;DHT22;26635;-35.248;149.138;2024-03-06T08:36:37;24.40;50.80
39931;DHT22;26635;-35.248;149.138;2024-03-06T08:39:07;24.30;52.20
39931;DHT22;26635;-35.248;149.138;2024-03-06T08:41:43;24.20;51.30
39931;DHT22;26635;-35.248;149.138;2024-03-06T08:44:13;24.20;51.60
39931;DHT22;26635;-35.248;149.138;2024-03-06T08:46:44;24.10;52.20
39931;DHT22;26635;-35.248;149.138;2024-03-06T08:49:15;24.00;53.40
39931;DHT22;26635;-35.248;149.138;2024-03-06T08:51:46;23.90;53.80
39931;DHT22;26635;-35.248;149.138;2024-03-06T08:54:17;23.90;53.80
39931;DHT22;26635;-35.248;149.138;2024-03-06T08:56:48;23.80;54.00
39931;DHT22;26635;-35.248;149.138;2024-03-06T08:59:21;23.70;54.70
39931;DHT22;26635;-35.248;149.138;2024-03-06T09:01:53;23.70;55.20
39931;DHT22;26635;-35.248;149.138;2024-03-06T09:04:24;23.60;55.40
39931;DHT22;26635;-35.248;149.138;2024-03-06T09:06:54;23.50;56.10
39931;DHT22;26635;-35.248;149.138;2024-03-06T09:09:24;23.40;56.20
39931;DHT22;26635;-35.248;149.138;2024-03-06T09:12:01;23.30;56.80
39931;DHT22;26635;-35.248;149.138;2024-03-06T09:14:34;23.20;56.80
39931;DHT22;26635;-35.248;149.138;2024-03-06T09:17:05;23.20;57.50
39931;DHT22;26635;-35.248;149.138;2024-03-06T09:19:36;23.10;57.80
39931;DHT22;26635;-35.248;149.138;2024-03-06T09:22:14;23.00;58.20
39931;DHT22;26635;-35.248;149.138;2024-03-06T09:24:45;23.00;58.50
39931;DHT22;26635;-35.248;149.138;2024-03-06T09:27:15;22.90;58.40
39931;DHT22;26635;-35.248;149.138;2024-03-06T09:29:46;22.80;59.10
39931;DHT22;26635;-35.248;149.138;2024-03-06T09:32:17;22.80;59.40
39931;DHT22;26635;-35.248;149.138;2024-03-06T09:34:48;22.70;58.60
39931;DHT22;26635;-35.248;149.138;2024-03-06T09:37:19;22.60;59.00
39931;DHT22;26635;-35.248;149.138;2024-03-06T09:39:50;22.60;59.30
39931;DHT22;26635;-35.248;149.138;2024-03-06T09:42:20;22.50;61.40
39931;DHT22;26635;-35.248;149.138;2024-03-06T09:44:52;22.50;62.00
39931;DHT22;26635;-35.248;149.138;2024-03-06T09:47:23;22.40;61.40
39931;DHT22;26635;-35.248;149.138;2024-03-06T09:49:56;22.30;61.10
39931;DHT22;26635;-35.248;149.138;2024-03-06T09:52:27;22.30;61.50
39931;DHT22;26635;-35.248;149.138;2024-03-06T09:54:58;22.30;62.30
39931;DHT22;26635;-35.248;149.138;2024-03-06T09:57:29;22.20;62.60
39931;DHT22;26635;-35.248;149.138;2024-03-06T10:00:00;22.10;63.00
39931;DHT22;26635;-35.248;149.138;2024-03-06T10:03:01;22.00;63.50
39931;DHT22;26635;-35.248;149.138;2024-03-06T10:05:36;22.00;63.10
39931;DHT22;26635;-35.248;149.138;2024-03-06T10:08:06;21.90;63.30
39931;DHT22;26635;-35.248;149.138;2024-03-06T10:10:38;21.90;63.60
39931;DHT22;26635;-35.248;149.138;2024-03-06T10:13:10;21.80;63.30
39931;DHT22;26635;-35.248;149.138;2024-03-06T10:15:40;21.70;63.90
39931;DHT22;26635;-35.248;149.138;2024-03-06T10:20:42;21.60;64.80
39931;DHT22;26635;-35.248;149.138;2024-03-06T10:23:13;21.50;65.30
39931;DHT22;26635;-35.248;149.138;2024-03-06T10:25:48;21.30;66.00
39931;DHT22;26635;-35.248;149.138;2024-03-06T10:28:23;21.30;66.00
39931;DHT22;26635;-35.248;149.138;2024-03-06T10:31:04;21.20;66.00
39931;DHT22;26635;-35.248;149.138;2024-03-06T10:33:38;21.10;66.60
39931;DHT22;26635;-35.248;149.138;2024-03-06T10:36:11;21.00;66.80
39931;DHT22;26635;-35.248;149.138;2024-03-06T10:38:44;21.00;66.80
39931;DHT22;26635;-35.248;149.138;2024-03-06T10:41:19;21.00;66.90
39931;DHT22;26635;-35.248;149.138;2024-03-06T10:43:55;20.90;67.20
39931;DHT22;26635;-35.248;149.138;2024-03-06T10:46:28;20.90;67.10
39931;DHT22;26635;-35.248;149.138;2024-03-06T10:49:00;20.90;68.20
39931;DHT22;26635;-35.248;149.138;2024-03-06T10:51:33;20.80;67.60
39931;DHT22;26635;-35.248;149.138;2024-03-06T10:54:04;20.80;68.40
39931;DHT22;26635;-35.248;149.138;2024-03-06T10:56:34;20.70;67.90
39931;DHT22;26635;-35.248;149.138;2024-03-06T10:59:06;20.70;68.30
39931;DHT22;26635;-35.248;149.138;2024-03-06T11:01:38;20.70;68.00
39931;DHT22;26635;-35.248;149.138;2024-03-06T11:04:10;20.60;67.90
39931;DHT22;26635;-35.248;149.138;2024-03-06T11:06:41;20.50;70.20
39931;DHT22;26635;-35.248;149.138;2024-03-06T11:09:11;20.40;69.10
39931;DHT22;26635;-35.248;149.138;2024-03-06T11:11:51;20.40;69.10
39931;DHT22;26635;-35.248;149.138;2024-03-06T11:14:23;20.40;69.80
39931;DHT22;26635;-35.248;149.138;2024-03-06T11:19:33;20.30;70.60
39931;DHT22;26635;-35.248;149.138;2024-03-06T11:33:47;20.00;71.90
39931;DHT22;26635;-35.248;149.138;2024-03-06T11:36:27;19.90;72.80
39931;DHT22;26635;-35.248;149.138;2024-03-06T11:39:06;19.80;73.40
39931;DHT22;26635;-35.248;149.138;2024-03-06T11:44:16;19.70;72.80
39931;DHT22;26635;-35.248;149.138;2024-03-06T11:47:07;19.70;72.80
39931;DHT22;26635;-35.248;149.138;2024-03-06T11:49:42;19.70;72.60
39931;DHT22;26635;-35.248;149.138;2024-03-06T11:52:13;19.60;72.60
39931;DHT22;26635;-35.248;149.138;2024-03-06T11:54:43;19.60;73.60
39931;DHT22;26635;-35.248;149.138;2024-03-06T11:57:13;19.50;73.10
39931;DHT22;26635;-35.248;149.138;2024-03-06T11:59:45;19.50;74.60
39931;DHT22;26635;-35.248;149.138;2024-03-06T12:02:17;19.40;73.80
39931;DHT22;26635;-35.248;149.138;2024-03-06T12:04:48;19.30;74.10
39931;DHT22;26635;-35.248;149.138;2024-03-06T12:07:18;19.30;74.30
39931;DHT22;26635;-35.248;149.138;2024-03-06T12:09:49;19.20;74.90
39931;DHT22;26635;-35.248;149.138;2024-03-06T12:12:20;19.10;75.70
39931;DHT22;26635;-35.248;149.138;2024-03-06T12:14:58;19.10;75.20
39931;DHT22;26635;-35.248;149.138;2024-03-06T12:17:45;19.10;74.50
39931;DHT22;26635;-35.248;149.138;2024-03-06T12:20:16;19.10;74.70
39931;DHT22;26635;-35.248;149.138;2024-03-06T12:22:51;19.10;74.60
39931;DHT22;26635;-35.248;149.138;2024-03-06T12:25:25;19.00;74.50
39931;DHT22;26635;-35.248;149.138;2024-03-06T12:28:07;19.00;74.30
39931;DHT22;26635;-35.248;149.138;2024-03-06T12:30:43;19.00;74.70
39931;DHT22;26635;-35.248;149.138;2024-03-06T12:33:17;18.90;75.00
39931;DHT22;26635;-35.248;149.138;2024-03-06T12:38:33;18.80;74.40
39931;DHT22;26635;-35.248;149.138;2024-03-06T12:41:04;18.80;73.50
39931;DHT22;26635;-35.248;149.138;2024-03-06T12:43:35;18.80;73.50
39931;DHT22;26635;-35.248;149.138;2024-03-06T12:46:06;18.70;73.50
39931;DHT22;26635;-35.248;149.138;2024-03-06T12:48:36;18.60;74.00
39931;DHT22;26635;-35.248;149.138;2024-03-06T12:51:06;18.70;74.70
39931;DHT22;26635;-35.248;149.138;2024-03-06T12:53:37;18.60;74.10
39931;DHT22;26635;-35.248;149.138;2024-03-06T12:56:08;18.60;75.10
39931;DHT22;26635;-35.248;149.138;2024-03-06T12:58:39;18.50;75.70
39931;DHT22;26635;-35.248;149.138;2024-03-06T13:01:10;18.50;75.30
39931;DHT22;26635;-35.248;149.138;2024-03-06T13:03:40;18.40;75.30
39931;DHT22;26635;-35.248;149.138;2024-03-06T13:06:10;18.40;75.60
39931;DHT22;26635;-35.248;149.138;2024-03-06T13:08:41;18.30;76.00
39931;DHT22;26635;-35.248;149.138;2024-03-06T13:11:12;18.30;76.00
39931;DHT22;26635;-35.248;149.138;2024-03-06T13:13:42;18.20;75.10
39931;DHT22;26635;-35.248;149.138;2024-03-06T13:16:13;18.20;75.70
39931;DHT22;26635;-35.248;149.138;2024-03-06T13:18:44;18.20;76.10
39931;DHT22;26635;-35.248;149.138;2024-03-06T13:21:14;18.10;76.10
39931;DHT22;26635;-35.248;149.138;2024-03-06T13:23:45;18.10;76.20
39931;DHT22;26635;-35.248;149.138;2024-03-06T13:26:15;18.00;76.30
39931;DHT22;26635;-35.248;149.138;2024-03-06T13:28:47;18.00;76.40
39931;DHT22;26635;-35.248;149.138;2024-03-06T13:31:18;18.00;77.00
39931;DHT22;26635;-35.248;149.138;2024-03-06T13:33:48;17.90;77.00
39931;DHT22;26635;-35.248;149.138;2024-03-06T13:36:18;17.90;77.40
39931;DHT22;26635;-35.248;149.138;2024-03-06T13:38:49;17.80;77.70
39931;DHT22;26635;-35.248;149.138;2024-03-06T13:41:20;17.80;77.90
39931;DHT22;26635;-35.248;149.138;2024-03-06T13:43:53;17.70;77.80
39931;DHT22;26635;-35.248;149.138;2024-03-06T13:46:24;17.80;78.20
39931;DHT22;26635;-35.248;149.138;2024-03-06T13:48:54;17.70;79.10
39931;DHT22;26635;-35.248;149.138;2024-03-06T13:51:24;17.70;78.80
39931;DHT22;26635;-35.248;149.138;2024-03-06T13:53:55;17.60;78.20
39931;DHT22;26635;-35.248;149.138;2024-03-06T13:56:25;17.60;78.20
39931;DHT22;26635;-35.248;149.138;2024-03-06T13:58:56;17.60;78.60
39931;DHT22;26635;-35.248;149.138;2024-03-06T14:01:26;17.50;78.50
39931;DHT22;26635;-35.248;149.138;2024-03-06T14:03:57;17.50;78.10
39931;DHT22;26635;-35.248;149.138;2024-03-06T14:06:30;17.50;78.20
39931;DHT22;26635;-35.248;149.138;2024-03-06T14:09:01;17.40;78.10
39931;DHT22;26635;-35.248;149.138;2024-03-06T14:11:31;17.40;78.20
39931;DHT22;26635;-35.248;149.138;2024-03-06T14:14:02;17.40;77.90
39931;DHT22;26635;-35.248;149.138;2024-03-06T14:16:32;17.40;78.70
39931;DHT22;26635;-35.248;149.138;2024-03-06T14:19:03;17.30;78.30
39931;DHT22;26635;-35.248;149.138;2024-03-06T14:21:34;17.30;79.60
39931;DHT22;26635;-35.248;149.138;2024-03-06T14:24:08;17.30;78.30
39931;DHT22;26635;-35.248;149.138;2024-03-06T14:26:38;17.20;78.70
39931;DHT22;26635;-35.248;149.138;2024-03-06T14:29:09;17.20;78.60
39931;DHT22;26635;-35.248;149.138;2024-03-06T14:31:40;17.20;79.10
39931;DHT22;26635;-35.248;149.138;2024-03-06T14:34:11;17.10;79.00
39931;DHT22;26635;-35.248;149.138;2024-03-06T14:36:42;17.10;79.60
39931;DHT22;26635;-35.248;149.138;2024-03-06T14:39:12;17.00;79.40
39931;DHT22;26635;-35.248;149.138;2024-03-06T14:41:44;17.00;80.00
39931;DHT22;26635;-35.248;149.138;2024-03-06T14:44:16;17.00;79.30
39931;DHT22;26635;-35.248;149.138;2024-03-06T14:46:47;17.00;79.90
39931;DHT22;26635;-35.248;149.138;2024-03-06T14:49:18;16.90;80.10
39931;DHT22;26635;-35.248;149.138;2024-03-06T14:51:49;16.90;80.20
39931;DHT22;26635;-35.248;149.138;2024-03-06T14:54:21;16.90;80.90
39931;DHT22;26635;-35.248;149.138;2024-03-06T14:56:55;16.80;80.30
39931;DHT22;26635;-35.248;149.138;2024-03-06T14:59:25;16.80;80.70
39931;DHT22;26635;-35.248;149.138;2024-03-06T15:01:56;16.80;80.60
39931;DHT22;26635;-35.248;149.138;2024-03-06T15:04:28;16.70;80.90
39931;DHT22;26635;-35.248;149.138;2024-03-06T15:06:58;16.70;80.90
39931;DHT22;26635;-35.248;149.138;2024-03-06T15:09:31;16.70;81.00
39931;DHT22;26635;-35.248;149.138;2024-03-06T15:12:01;16.70;81.80
39931;DHT22;26635;-35.248;149.138;2024-03-06T15:14:34;16.60;81.10
39931;DHT22;26635;-35.248;149.138;2024-03-06T15:17:13;16.60;82.00
39931;DHT22;26635;-35.248;149.138;2024-03-06T15:19:45;16.60;82.70
39931;DHT22;26635;-35.248;149.138;2024-03-06T15:22:15;16.50;81.50
39931;DHT22;26635;-35.248;149.138;2024-03-06T15:24:46;16.50;81.40
39931;DHT22;26635;-35.248;149.138;2024-03-06T15:27:17;16.50;82.30
39931;DHT22;26635;-35.248;149.138;2024-03-06T15:29:48;16.40;81.70
39931;DHT22;26635;-35.248;149.138;2024-03-06T15:32:19;16.40;82.30
39931;DHT22;26635;-35.248;149.138;2024-03-06T15:34:51;16.40;82.10
39931;DHT22;26635;-35.248;149.138;2024-03-06T15:37:26;16.30;82.40
39931;DHT22;26635;-35.248;149.138;2024-03-06T15:39:56;16.40;82.70
39931;DHT22;26635;-35.248;149.138;2024-03-06T15:42:27;16.30;83.30